createdAt,value
2022-10-24T00:01:43.605Z,1.90
2022-10-24T00:04:11.953Z,1.90
2022-10-24T00:06:41.424Z,1.50
2022-10-24T00:09:09.918Z,1.63
2022-10-24T00:11:38.830Z,1.50
2022-10-24T00:14:07.761Z,1.57
2022-10-24T00:16:36.132Z,1.37
2022-10-24T00:19:04.511Z,1.53
2022-10-24T00:21:32.979Z,1.30
2022-10-24T00:24:01.353Z,1.30
2022-10-24T00:26:30.559Z,1.70
2022-10-24T00:29:02.393Z,2.33
2022-10-24T00:31:30.872Z,1.73
2022-10-24T00:34:00.615Z,1.40
2022-10-24T00:36:29.080Z,1.47
2022-10-24T00:38:57.444Z,1.53
2022-10-24T00:41:35.051Z,1.20
2022-10-24T00:44:28.287Z,1.70
2022-10-24T00:47:09.975Z,1.60
2022-10-24T00:49:47.083Z,1.40
2022-10-24T00:52:17.107Z,1.00
2022-10-24T00:54:45.631Z,1.27
2022-10-24T00:57:20.504Z,1.33
2022-10-24T00:59:51.863Z,1.50
2022-10-24T01:02:22.092Z,2.07
2022-10-24T01:04:50.462Z,1.67
2022-10-24T01:07:45.069Z,1.77
2022-10-24T01:10:22.546Z,1.80
2022-10-24T01:13:03.254Z,1.70
2022-10-24T01:15:35.110Z,1.40
2022-10-24T01:18:07.664Z,1.23
2022-10-24T01:20:57.549Z,1.33
2022-10-24T01:23:51.911Z,1.30
2022-10-24T01:26:40.496Z,1.20
2022-10-24T01:29:29.887Z,1.27
2022-10-24T01:32:06.900Z,1.00
2022-10-24T01:34:55.975Z,1.07
2022-10-24T01:37:30.083Z,0.97
2022-10-24T01:40:02.936Z,1.17
2022-10-24T01:42:31.616Z,1.17
2022-10-24T01:45:00.228Z,1.10
2022-10-24T01:47:31.213Z,1.43
2022-10-24T01:50:01.955Z,1.00
2022-10-24T01:52:33.113Z,1.43
2022-10-24T01:55:01.816Z,1.03
2022-10-24T01:57:31.719Z,1.80
2022-10-24T02:00:00.095Z,3.20
2022-10-24T02:02:29.620Z,6.00
2022-10-24T02:05:06.514Z,6.63
2022-10-24T02:07:34.916Z,4.80
2022-10-24T02:10:08.751Z,3.70
2022-10-24T02:12:38.939Z,2.57
2022-10-24T02:15:20.515Z,2.83
2022-10-24T02:17:48.840Z,3.40
2022-10-24T02:20:17.757Z,3.53
2022-10-24T02:23:43.755Z,3.10
2022-10-24T02:26:19.162Z,2.90
2022-10-24T02:28:48.098Z,3.60
2022-10-24T02:31:18.748Z,2.73
2022-10-24T02:33:47.258Z,2.40
2022-10-24T02:36:17.722Z,2.63
2022-10-24T02:38:46.342Z,2.87
2022-10-24T02:41:17.224Z,2.10
2022-10-24T02:43:46.202Z,2.00
2022-10-24T02:46:14.560Z,2.60
2022-10-24T02:48:45.416Z,2.70
2022-10-24T02:51:14.722Z,3.37
2022-10-24T02:53:43.782Z,2.90
2022-10-24T02:56:12.155Z,2.67
2022-10-24T02:58:40.489Z,3.47
2022-10-24T03:01:09.929Z,2.73
2022-10-24T03:03:38.392Z,3.57
2022-10-24T03:06:07.083Z,3.20
2022-10-24T03:08:35.421Z,3.00
2022-10-24T03:11:03.806Z,3.70
2022-10-24T03:13:33.267Z,3.40
2022-10-24T03:16:01.680Z,3.50
2022-10-24T03:18:29.964Z,4.20
2022-10-24T03:20:58.318Z,3.47
2022-10-24T03:23:29.489Z,3.27
2022-10-24T03:25:58.264Z,3.87
2022-10-24T03:28:26.619Z,3.00
2022-10-24T03:30:57.179Z,2.13
2022-10-24T03:33:26.182Z,1.93
2022-10-24T03:35:54.728Z,2.20
2022-10-24T03:38:23.308Z,2.10
2022-10-24T03:40:51.828Z,2.17
2022-10-24T03:43:20.453Z,2.00
2022-10-24T03:45:48.763Z,2.17
2022-10-24T03:48:17.167Z,2.27
2022-10-24T03:50:45.435Z,1.73
2022-10-24T03:53:13.758Z,1.80
2022-10-24T03:55:42.086Z,1.80
2022-10-24T03:58:10.507Z,1.80
2022-10-24T04:00:40.858Z,1.87
2022-10-24T04:03:10.059Z,2.70
2022-10-24T04:08:08.000Z,3.30
2022-10-24T04:10:36.414Z,2.60
2022-10-24T04:13:04.850Z,2.50
2022-10-24T04:15:33.173Z,1.77
2022-10-24T04:18:01.509Z,1.90
2022-10-24T04:20:30.690Z,1.80
2022-10-24T04:23:01.161Z,2.03
2022-10-24T04:25:32.170Z,1.90
2022-10-24T04:28:00.587Z,1.67
2022-10-24T04:30:29.833Z,1.70
2022-10-24T04:32:58.920Z,1.60
2022-10-24T04:35:27.350Z,1.50
2022-10-24T04:37:55.769Z,2.20
2022-10-24T04:40:24.216Z,1.90
2022-10-24T04:42:52.592Z,1.73
2022-10-24T04:45:21.011Z,2.00
2022-10-24T04:47:49.351Z,2.70
2022-10-24T04:50:18.462Z,3.60
2022-10-24T04:52:48.142Z,3.90
2022-10-24T04:55:16.647Z,3.20
2022-10-24T04:57:45.345Z,3.60
2022-10-24T05:00:14.383Z,3.67
2022-10-24T05:02:42.836Z,3.77
2022-10-24T05:05:11.378Z,4.67
2022-10-24T05:07:39.850Z,5.63
2022-10-24T05:10:08.680Z,6.37
2022-10-24T05:12:37.127Z,5.97
2022-10-24T05:15:06.335Z,5.23
2022-10-24T05:17:34.748Z,5.77
2022-10-24T05:20:04.477Z,5.83
2022-10-24T05:22:33.490Z,6.77
2022-10-24T05:25:01.927Z,7.00
2022-10-24T05:27:30.263Z,5.83
2022-10-24T05:29:59.334Z,6.70
2022-10-24T05:32:27.704Z,7.53
2022-10-24T05:34:56.094Z,7.93
2022-10-24T05:37:24.689Z,7.53
2022-10-24T05:39:53.181Z,7.10
2022-10-24T05:42:22.201Z,7.07
2022-10-24T05:44:50.578Z,7.33
2022-10-24T05:47:19.286Z,6.93
2022-10-24T05:49:47.659Z,7.27
2022-10-24T05:52:16.621Z,7.47
2022-10-24T05:54:55.152Z,6.40
2022-10-24T05:57:31.314Z,6.07
2022-10-24T05:59:59.747Z,5.27
2022-10-24T06:02:28.969Z,6.13
2022-10-24T06:04:59.161Z,6.30
2022-10-24T06:07:27.668Z,5.43
2022-10-24T06:09:56.115Z,6.90
2022-10-24T06:12:24.836Z,4.60
2022-10-24T06:14:57.849Z,5.33
2022-10-24T06:17:26.552Z,4.23
2022-10-24T06:19:54.862Z,4.87
2022-10-24T06:22:28.103Z,5.17
2022-10-24T06:24:56.794Z,4.43
2022-10-24T06:27:26.507Z,3.93
2022-10-24T06:29:54.919Z,4.37
2022-10-24T06:32:23.956Z,4.07
2022-10-24T06:34:53.477Z,3.47
2022-10-24T06:37:21.904Z,4.07
2022-10-24T06:39:51.325Z,4.37
2022-10-24T06:42:19.810Z,5.72
2022-10-24T06:44:48.353Z,5.53
2022-10-24T06:47:16.834Z,5.75
2022-10-24T06:49:46.250Z,5.75
2022-10-24T06:52:15.295Z,5.97
2022-10-24T06:54:44.581Z,5.68
2022-10-24T06:57:13.010Z,5.50
2022-10-24T06:59:42.021Z,5.80
2022-10-24T07:02:15.424Z,6.03
2022-10-24T07:04:43.872Z,6.55
2022-10-24T07:07:16.580Z,6.50
2022-10-24T07:09:45.103Z,6.70
2022-10-24T07:12:13.532Z,6.18
2022-10-24T07:14:42.646Z,5.80
2022-10-24T07:17:11.020Z,6.43
2022-10-24T07:19:39.431Z,5.65
2022-10-24T07:22:07.940Z,4.78
2022-10-24T07:24:36.423Z,4.47
2022-10-24T07:27:04.750Z,5.05
2022-10-24T07:29:33.165Z,5.05
2022-10-24T07:32:02.376Z,5.22
2022-10-24T07:34:30.727Z,5.47
2022-10-24T07:37:00.912Z,5.07
2022-10-24T07:39:30.494Z,3.75
2022-10-24T07:41:59.012Z,3.33
2022-10-24T07:44:27.478Z,3.22
2022-10-24T07:46:55.918Z,3.75
2022-10-24T07:49:24.356Z,4.20
2022-10-24T07:51:53.352Z,4.07
2022-10-24T07:56:55.763Z,4.00
2022-10-24T07:59:41.361Z,3.78
2022-10-24T08:02:14.280Z,4.60
2022-10-24T08:04:42.738Z,4.30
2022-10-24T08:07:14.886Z,4.20
2022-10-24T08:09:46.242Z,3.90
2022-10-24T08:12:14.863Z,4.45
2022-10-24T08:14:43.642Z,4.40
2022-10-24T08:17:12.165Z,4.75
2022-10-24T08:19:44.198Z,3.92
2022-10-24T08:22:13.090Z,4.55
2022-10-24T08:24:43.717Z,4.65
2022-10-24T08:27:13.580Z,4.53
2022-10-24T08:29:42.010Z,4.30
2022-10-24T08:32:10.920Z,3.67
2022-10-24T08:34:39.489Z,3.65
2022-10-24T08:37:07.896Z,4.05
2022-10-24T08:39:36.251Z,3.53
2022-10-24T08:42:08.832Z,3.63
2022-10-24T08:44:41.650Z,3.03
2022-10-24T08:47:31.935Z,3.75
2022-10-24T08:50:05.196Z,3.40
2022-10-24T08:53:03.440Z,3.25
2022-10-24T08:55:49.157Z,3.20
2022-10-24T08:58:25.391Z,3.15
2022-10-24T09:00:58.584Z,3.20
2022-10-24T09:03:55.452Z,3.38
2022-10-24T09:06:30.662Z,2.90
2022-10-24T09:09:06.900Z,3.25
2022-10-24T09:11:44.167Z,3.65
2022-10-24T09:14:37.292Z,3.03
2022-10-24T09:17:38.242Z,2.90
2022-10-24T09:20:29.240Z,3.28
2022-10-24T09:23:04.982Z,3.00
2022-10-24T09:25:35.815Z,2.58
2022-10-24T09:28:05.388Z,2.92
2022-10-24T09:30:34.628Z,2.83
2022-10-24T09:33:13.466Z,2.95
2022-10-24T09:35:41.883Z,3.13
2022-10-24T09:38:35.828Z,3.30
2022-10-24T09:41:06.958Z,2.60
2022-10-24T09:43:40.321Z,2.38
2022-10-24T09:46:09.771Z,2.60
2022-10-24T09:48:56.685Z,2.70
2022-10-24T09:51:43.211Z,2.25
2022-10-24T09:54:20.495Z,1.98
2022-10-24T09:57:05.669Z,2.25
2022-10-24T09:59:33.984Z,1.42
2022-10-24T10:02:13.162Z,1.40
2022-10-24T10:04:42.058Z,1.67
2022-10-24T10:07:12.397Z,1.40
2022-10-24T10:09:52.666Z,1.73
2022-10-24T10:12:36.293Z,2.17
2022-10-24T10:15:19.067Z,1.50
2022-10-24T10:17:51.340Z,1.70
2022-10-24T10:20:32.788Z,1.52
2022-10-24T10:23:26.863Z,1.20
2022-10-24T10:26:20.640Z,1.60
2022-10-24T10:28:57.985Z,1.77
2022-10-24T10:31:43.975Z,1.70
2022-10-24T10:34:31.039Z,1.30
2022-10-24T10:37:19.139Z,1.38
2022-10-24T10:40:15.750Z,1.20
2022-10-24T10:43:18.723Z,1.15
2022-10-24T10:45:48.886Z,1.27
2022-10-24T10:48:38.308Z,1.20
2022-10-24T10:51:35.971Z,1.30
2022-10-24T10:54:19.581Z,1.70
2022-10-24T10:56:50.744Z,1.27
2022-10-24T10:59:54.075Z,1.75
2022-10-24T11:02:41.099Z,1.55
2022-10-24T11:05:15.350Z,1.38
2022-10-24T11:08:17.180Z,1.58
2022-10-24T11:11:08.955Z,1.42
2022-10-24T11:13:39.488Z,1.55
2022-10-24T11:16:13.539Z,1.40
2022-10-24T11:18:44.885Z,1.92
2022-10-24T11:21:18.826Z,1.08
2022-10-24T11:24:11.147Z,2.38
2022-10-24T11:26:50.756Z,1.80
2022-10-24T11:29:24.386Z,1.83
2022-10-24T11:31:58.411Z,1.40
2022-10-24T11:34:54.874Z,1.60
2022-10-24T11:37:34.206Z,1.23
2022-10-24T11:40:10.908Z,1.20
2022-10-24T11:43:10.686Z,1.50
2022-10-24T11:45:54.386Z,1.30
2022-10-24T11:49:04.277Z,1.27
2022-10-24T11:51:41.308Z,1.65
2022-10-24T11:54:17.318Z,1.15
2022-10-24T11:56:55.711Z,1.30
2022-10-24T11:59:26.962Z,1.52
2022-10-24T12:01:55.425Z,1.70
2022-10-24T12:05:00.708Z,1.88
2022-10-24T12:07:47.637Z,1.20
2022-10-24T12:10:37.897Z,1.60
2022-10-24T12:13:37.834Z,1.50
2022-10-24T12:16:39.862Z,1.50
2022-10-24T12:19:18.709Z,1.40
2022-10-24T12:21:54.971Z,1.73
2022-10-24T12:24:33.207Z,1.75
2022-10-24T12:27:03.935Z,1.52
2022-10-24T12:29:34.329Z,1.50
2022-10-24T12:32:39.679Z,2.83
2022-10-24T12:35:34.318Z,9.70
2022-10-24T12:38:03.446Z,3.28
2022-10-24T12:40:47.213Z,2.65
2022-10-24T12:43:30.693Z,4.78
2022-10-24T12:46:26.028Z,9.63
2022-10-24T12:48:57.480Z,5.43
2022-10-24T12:51:32.450Z,3.10
2022-10-24T12:54:04.921Z,1.95
2022-10-24T12:56:34.008Z,1.40
2022-10-24T12:59:04.731Z,1.52
2022-10-24T13:01:38.058Z,1.75
2022-10-24T13:04:15.753Z,1.90
2022-10-24T13:06:48.901Z,1.50
2022-10-24T13:09:32.657Z,1.23
2022-10-24T13:12:08.072Z,1.50
2022-10-24T13:14:36.784Z,1.67
2022-10-24T13:17:17.494Z,1.75
2022-10-24T13:19:46.459Z,1.80
2022-10-24T13:22:29.208Z,1.50
2022-10-24T13:24:58.307Z,1.65
2022-10-24T13:27:31.297Z,1.65
2022-10-24T13:30:01.592Z,1.52
2022-10-24T13:32:32.347Z,1.50
2022-10-24T13:35:00.987Z,1.80
2022-10-24T13:37:50.925Z,1.75
2022-10-24T13:40:32.973Z,1.55
2022-10-24T13:43:07.655Z,1.30
2022-10-24T13:45:53.050Z,1.52
2022-10-24T13:48:26.801Z,1.30
2022-10-24T13:51:11.228Z,1.45
2022-10-24T13:54:03.002Z,1.27
2022-10-24T13:56:32.369Z,1.40
2022-10-24T13:59:00.852Z,1.77
2022-10-24T14:01:36.633Z,1.65
2022-10-24T14:04:07.553Z,2.20
2022-10-24T14:06:36.042Z,1.50
2022-10-24T14:09:11.477Z,1.50
2022-10-24T14:11:53.508Z,1.40
2022-10-24T14:14:40.463Z,1.52
2022-10-24T14:17:28.799Z,1.48
2022-10-24T14:20:10.156Z,1.88
2022-10-24T14:22:41.420Z,1.98
2022-10-24T14:25:29.100Z,2.63
2022-10-24T14:28:00.419Z,2.70
2022-10-24T14:30:34.410Z,1.77
2022-10-24T14:33:15.244Z,1.58
2022-10-24T14:35:43.613Z,1.30
2022-10-24T14:38:14.131Z,1.55
2022-10-24T14:40:46.463Z,1.60
2022-10-24T14:46:12.076Z,4.15
2022-10-24T14:48:45.181Z,6.20
2022-10-24T14:51:32.778Z,4.97
2022-10-24T14:54:04.066Z,2.45
2022-10-24T14:56:36.249Z,2.20
2022-10-24T14:59:08.342Z,2.90
2022-10-24T15:01:37.002Z,4.47
2022-10-24T15:04:10.919Z,9.20
2022-10-24T15:06:40.249Z,9.32
2022-10-24T15:09:11.775Z,9.48
2022-10-24T15:12:00.041Z,8.43
2022-10-24T15:14:40.439Z,11.70
2022-10-24T15:17:18.978Z,13.10
2022-10-24T15:19:47.859Z,10.25
2022-10-24T15:22:35.859Z,8.30
2022-10-24T15:25:08.889Z,8.35
2022-10-24T15:27:41.539Z,7.22
2022-10-24T15:30:22.521Z,5.97
2022-10-24T15:32:54.040Z,4.13
2022-10-24T15:35:23.002Z,2.95
2022-10-24T15:37:58.015Z,2.28
2022-10-24T15:40:30.106Z,2.20
2022-10-24T15:42:59.178Z,2.55
2022-10-24T15:45:29.015Z,2.92
2022-10-24T15:47:57.417Z,2.40
2022-10-24T15:50:25.887Z,2.47
2022-10-24T15:52:56.407Z,3.30
2022-10-24T15:55:26.395Z,3.05
2022-10-24T15:57:55.104Z,2.33
2022-10-24T16:00:23.713Z,2.90
2022-10-24T16:02:53.562Z,11.65
2022-10-24T16:05:26.734Z,8.05
2022-10-24T16:07:59.104Z,10.38
2022-10-24T16:10:28.438Z,12.57
2022-10-24T16:12:56.750Z,13.52
2022-10-24T16:15:28.939Z,15.93
2022-10-24T16:17:59.555Z,12.30
2022-10-24T16:20:30.408Z,8.48
2022-10-24T16:22:59.817Z,4.75
2022-10-24T16:25:33.933Z,3.03
2022-10-24T16:28:04.871Z,3.80
2022-10-24T16:30:35.987Z,4.70
2022-10-24T16:33:07.418Z,7.68
2022-10-24T16:35:37.700Z,9.90
2022-10-24T16:38:08.433Z,10.02
2022-10-24T16:43:16.086Z,21.00
2022-10-24T16:45:48.696Z,17.63
2022-10-24T16:48:18.068Z,14.85
2022-10-24T16:50:47.382Z,11.40
2022-10-24T16:53:19.978Z,9.45
2022-10-24T16:55:50.992Z,15.68
2022-10-24T16:58:20.844Z,14.93
2022-10-24T17:00:50.887Z,13.27
2022-10-24T17:03:24.533Z,12.35
2022-10-24T17:05:54.538Z,13.00
2022-10-24T17:08:26.999Z,12.43
2022-10-24T17:10:56.027Z,12.13
2022-10-24T17:13:28.884Z,13.63
2022-10-24T17:16:04.787Z,12.02
2022-10-24T17:18:36.196Z,13.05
2022-10-24T17:21:09.564Z,14.57
2022-10-24T17:23:38.424Z,20.17
2022-10-24T17:26:16.288Z,18.50
2022-10-24T17:28:45.527Z,18.70
2022-10-24T17:31:18.769Z,18.73
2022-10-24T17:34:01.353Z,19.50
2022-10-24T17:36:42.874Z,20.80
2022-10-24T17:42:16.415Z,16.33
2022-10-24T17:44:50.198Z,26.10
2022-10-24T17:47:23.346Z,32.33
2022-10-24T17:49:55.471Z,32.17
2022-10-24T17:52:28.020Z,30.43
2022-10-24T17:54:59.851Z,25.77
2022-10-24T17:57:33.502Z,11.67
2022-10-24T18:00:04.063Z,5.30
2022-10-24T18:02:56.909Z,5.80
2022-10-24T18:05:54.216Z,6.53
2022-10-24T18:08:26.327Z,10.83
2022-10-24T18:11:09.775Z,11.37
2022-10-24T18:13:42.736Z,10.50
2022-10-24T18:16:16.325Z,10.63
2022-10-24T18:18:51.047Z,14.17
2022-10-24T18:21:30.752Z,21.43
2022-10-24T18:24:10.008Z,21.00
2022-10-24T18:26:43.306Z,14.37
2022-10-24T18:29:13.884Z,10.90
2022-10-24T18:31:48.232Z,11.60
2022-10-24T18:34:19.946Z,12.37
2022-10-24T18:36:48.370Z,14.73
2022-10-24T18:39:26.444Z,12.87
2022-10-24T18:42:26.047Z,13.07
2022-10-24T18:44:59.776Z,9.53
2022-10-24T18:47:33.949Z,6.57
2022-10-24T18:50:03.113Z,7.97
2022-10-24T18:52:50.635Z,6.70
2022-10-24T18:55:25.521Z,6.53
2022-10-24T18:57:54.305Z,6.00
2022-10-24T19:00:28.812Z,6.43
2022-10-24T19:03:28.596Z,7.13
2022-10-24T19:06:23.253Z,6.67
2022-10-24T19:08:51.981Z,6.23
2022-10-24T19:11:21.465Z,6.97
2022-10-24T19:13:50.184Z,6.83
2022-10-24T19:16:24.112Z,7.07
2022-10-24T19:18:58.171Z,5.40
2022-10-24T19:21:30.528Z,4.73
2022-10-24T19:23:59.752Z,6.07
2022-10-24T19:26:29.914Z,4.17
2022-10-24T19:29:01.121Z,3.87
2022-10-24T19:31:35.158Z,3.67
2022-10-24T19:34:05.980Z,4.70
2022-10-24T19:36:35.642Z,3.57
2022-10-24T19:39:05.883Z,3.30
2022-10-24T19:41:36.896Z,3.20
2022-10-24T19:44:07.885Z,3.83
2022-10-24T19:46:37.635Z,3.17
2022-10-24T19:49:06.180Z,2.70
2022-10-24T19:51:35.959Z,3.27
2022-10-24T19:54:08.343Z,3.70
2022-10-24T19:56:45.364Z,3.13
2022-10-24T19:59:14.760Z,3.33
2022-10-24T20:01:45.976Z,3.53
2022-10-24T20:04:15.497Z,3.97
2022-10-24T20:06:48.253Z,4.47
2022-10-24T20:09:19.638Z,4.13
2022-10-24T20:11:48.817Z,3.67
2022-10-24T20:14:17.608Z,3.30
2022-10-24T20:16:45.974Z,4.73
2022-10-24T20:19:14.406Z,3.80
2022-10-24T20:21:43.459Z,3.07
2022-10-24T20:24:13.637Z,3.53
2022-10-24T20:26:42.261Z,3.97
2022-10-24T20:29:15.120Z,4.13
2022-10-24T20:31:46.060Z,4.50
2022-10-24T20:34:14.642Z,5.07
2022-10-24T20:36:48.846Z,6.40
2022-10-24T20:39:21.414Z,5.97
2022-10-24T20:41:58.626Z,4.93
2022-10-24T20:44:27.125Z,4.90
2022-10-24T20:46:56.934Z,4.17
2022-10-24T20:49:26.000Z,3.97
2022-10-24T20:51:55.177Z,3.57
2022-10-24T20:54:23.706Z,3.67
2022-10-24T20:56:53.698Z,3.67
2022-10-24T20:59:23.526Z,2.87
2022-10-24T21:01:52.690Z,2.87
2022-10-24T21:04:21.239Z,2.53
2022-10-24T21:06:49.685Z,3.67
2022-10-24T21:09:18.134Z,2.97
2022-10-24T21:11:47.174Z,2.77
2022-10-24T21:14:16.547Z,2.80
2022-10-24T21:16:45.020Z,2.97
2022-10-24T21:19:13.524Z,3.23
2022-10-24T21:21:42.413Z,2.63
2022-10-24T21:24:18.212Z,3.83
2022-10-24T21:26:46.682Z,3.00
2022-10-24T21:29:32.121Z,2.90
2022-10-24T21:32:00.972Z,3.17
2022-10-24T21:34:31.792Z,2.57
2022-10-24T21:37:03.885Z,2.57
2022-10-24T21:39:32.324Z,2.67
2022-10-24T21:42:00.761Z,2.57
2022-10-24T21:44:29.262Z,2.20
2022-10-24T21:46:57.665Z,4.03
2022-10-24T21:49:25.997Z,2.70
2022-10-24T21:51:54.374Z,3.07
2022-10-24T21:54:23.908Z,3.30
2022-10-24T21:56:52.928Z,2.80
2022-10-24T21:59:21.460Z,1.87
2022-10-24T22:01:50.737Z,1.77
2022-10-24T22:04:20.639Z,3.10
2022-10-24T22:06:48.991Z,2.40
2022-10-24T22:09:19.373Z,1.83
2022-10-24T22:11:47.739Z,1.90
2022-10-24T22:14:16.494Z,2.13
2022-10-24T22:16:46.012Z,2.50
2022-10-24T22:19:14.517Z,1.40
2022-10-24T22:21:47.764Z,1.67
2022-10-24T22:24:25.077Z,1.50
2022-10-24T22:26:53.808Z,1.63
2022-10-24T22:29:23.070Z,2.27
2022-10-24T22:31:52.275Z,3.37
2022-10-24T22:34:23.630Z,2.13
2022-10-24T22:37:15.989Z,3.50
2022-10-24T22:39:44.615Z,2.87
2022-10-24T22:42:15.959Z,1.97
2022-10-24T22:44:46.463Z,1.97
2022-10-24T22:47:43.843Z,1.70
2022-10-24T22:50:45.849Z,2.20
2022-10-24T22:53:15.138Z,2.30
2022-10-24T22:56:11.692Z,1.70
2022-10-24T22:58:41.512Z,1.87
2022-10-24T23:01:27.826Z,2.70
2022-10-24T23:04:13.421Z,2.30
2022-10-24T23:07:02.972Z,2.90
2022-10-24T23:09:31.271Z,2.90
2022-10-24T23:11:59.791Z,2.13
2022-10-24T23:14:29.286Z,2.10
2022-10-24T23:16:59.202Z,2.60
2022-10-24T23:19:31.816Z,2.30
2022-10-24T23:22:16.596Z,2.07
2022-10-24T23:24:45.323Z,2.70
2022-10-24T23:27:38.290Z,2.83
2022-10-24T23:30:18.389Z,2.73
2022-10-24T23:32:47.757Z,3.60
2022-10-24T23:35:18.713Z,3.87
2022-10-24T23:37:51.226Z,3.10
2022-10-24T23:40:34.823Z,3.50
2022-10-24T23:43:04.490Z,3.10
2022-10-24T23:45:36.045Z,3.40
2022-10-24T23:48:43.248Z,2.80
2022-10-24T23:51:16.757Z,3.43
2022-10-24T23:53:55.381Z,3.20
2022-10-24T23:56:28.634Z,2.20
2022-10-24T23:58:57.050Z,2.57
